createdAt,value
2017-05-12T00:00:50.509Z,15.60
2017-05-12T00:03:17.841Z,15.50
2017-05-12T00:05:46.127Z,15.40
2017-05-12T00:08:13.492Z,15.30
2017-05-12T00:10:41.639Z,15.30
2017-05-12T00:13:09.009Z,15.20
2017-05-12T00:15:38.101Z,15.20
2017-05-12T00:18:05.438Z,15.20
2017-05-12T00:20:32.870Z,15.30
2017-05-12T00:23:00.959Z,15.20
2017-05-12T00:25:33.423Z,15.20
2017-05-12T00:28:00.870Z,15.20
2017-05-12T00:30:34.120Z,15.00
2017-05-12T00:33:02.779Z,15.00
2017-05-12T00:35:30.149Z,15.00
2017-05-12T00:37:57.505Z,15.00
2017-05-12T00:40:24.857Z,14.90
2017-05-12T00:42:52.422Z,14.90
2017-05-12T00:45:19.778Z,14.70
2017-05-12T00:47:47.179Z,14.70
2017-05-12T00:50:14.702Z,14.70
2017-05-12T00:52:43.065Z,14.80
2017-05-12T00:55:10.657Z,14.80
2017-05-12T00:57:38.807Z,14.70
2017-05-12T01:00:06.149Z,14.60
2017-05-12T01:02:33.505Z,14.50
2017-05-12T01:05:00.829Z,14.50
2017-05-12T01:07:28.231Z,14.50
2017-05-12T01:09:55.587Z,14.60
2017-05-12T01:12:22.963Z,14.50
2017-05-12T01:14:50.317Z,14.50
2017-05-12T01:17:18.414Z,14.40
2017-05-12T01:19:45.742Z,14.30
2017-05-12T01:22:13.098Z,14.50
2017-05-12T01:24:41.174Z,14.60
2017-05-12T01:27:08.665Z,14.60
2017-05-12T01:29:36.024Z,14.70
2017-05-12T01:32:03.366Z,14.70
2017-05-12T01:34:30.919Z,14.80
2017-05-12T01:36:58.332Z,14.90
2017-05-12T01:39:25.731Z,14.80
2017-05-12T01:41:53.119Z,14.70
2017-05-12T01:44:20.478Z,14.60
2017-05-12T01:46:48.771Z,14.60
2017-05-12T01:49:17.847Z,14.40
2017-05-12T01:51:45.965Z,14.40
2017-05-12T01:54:13.334Z,14.20
2017-05-12T01:56:40.687Z,14.30
2017-05-12T01:59:08.092Z,14.30
2017-05-12T02:01:35.438Z,14.40
2017-05-12T02:04:02.890Z,14.30
2017-05-12T02:06:30.216Z,14.10
2017-05-12T02:08:57.570Z,13.90
2017-05-12T02:11:25.155Z,13.80
2017-05-12T02:13:52.912Z,13.80
2017-05-12T02:16:20.279Z,13.70
2017-05-12T02:18:53.681Z,13.70
2017-05-12T02:21:21.039Z,13.80
2017-05-12T02:23:48.390Z,13.80
2017-05-12T02:26:15.702Z,13.60
2017-05-12T02:28:43.059Z,13.70
2017-05-12T02:31:10.438Z,13.80
2017-05-12T02:33:37.795Z,13.90
2017-05-12T02:36:05.199Z,14.00
2017-05-12T02:38:32.630Z,14.00
2017-05-12T02:40:59.984Z,13.80
2017-05-12T02:43:27.327Z,13.70
2017-05-12T02:45:54.676Z,13.80
2017-05-12T02:48:22.337Z,13.80
2017-05-12T02:50:49.818Z,13.90
2017-05-12T02:53:17.310Z,13.90
2017-05-12T02:55:44.679Z,13.90
2017-05-12T02:58:12.059Z,13.80
2017-05-12T03:00:40.224Z,13.70
2017-05-12T03:03:07.612Z,13.90
2017-05-12T03:05:35.682Z,13.80
2017-05-12T03:08:03.041Z,13.80
2017-05-12T03:10:30.367Z,13.90
2017-05-12T03:12:58.301Z,14.10
2017-05-12T03:15:26.236Z,14.10
2017-05-12T03:17:53.600Z,13.90
2017-05-12T03:20:22.401Z,13.70
2017-05-12T03:22:49.798Z,13.60
2017-05-12T03:25:17.137Z,13.70
2017-05-12T03:27:45.186Z,13.90
2017-05-12T03:30:13.089Z,14.20
2017-05-12T03:32:40.439Z,14.00
2017-05-12T03:35:14.771Z,13.90
2017-05-12T03:37:42.136Z,14.00
2017-05-12T03:40:18.568Z,14.00
2017-05-12T03:42:45.940Z,14.00
2017-05-12T03:45:13.248Z,13.90
2017-05-12T03:47:40.632Z,13.90
2017-05-12T03:50:08.009Z,14.00
2017-05-12T03:52:35.329Z,13.90
2017-05-12T03:55:02.701Z,14.00
2017-05-12T03:57:30.030Z,14.00
2017-05-12T03:59:57.341Z,14.10
2017-05-12T04:02:24.702Z,14.20
2017-05-12T04:04:52.039Z,14.20
2017-05-12T04:07:19.377Z,14.20
2017-05-12T04:09:46.928Z,14.20
2017-05-12T04:12:14.473Z,14.00
2017-05-12T04:14:41.831Z,14.10
2017-05-12T04:17:09.264Z,14.20
2017-05-12T04:19:36.828Z,14.30
2017-05-12T04:22:04.227Z,14.60
2017-05-12T04:24:31.596Z,14.60
2017-05-12T04:26:59.258Z,14.60
2017-05-12T04:29:27.391Z,14.70
2017-05-12T04:31:54.894Z,14.70
2017-05-12T04:34:22.996Z,14.70
2017-05-12T04:36:52.811Z,14.80
2017-05-12T04:39:20.918Z,14.90
2017-05-12T04:41:48.271Z,14.80
2017-05-12T04:44:15.630Z,14.90
2017-05-12T04:46:43.749Z,15.00
2017-05-12T04:49:11.178Z,15.20
2017-05-12T04:51:38.653Z,15.50
2017-05-12T04:54:06.203Z,15.50
2017-05-12T04:56:33.937Z,15.60
2017-05-12T04:59:02.404Z,15.90
2017-05-12T05:01:34.014Z,16.00
2017-05-12T05:04:01.861Z,16.00
2017-05-12T05:06:30.074Z,16.00
2017-05-12T05:08:57.500Z,16.00
2017-05-12T05:11:25.833Z,16.20
2017-05-12T05:13:54.018Z,16.20
2017-05-12T05:16:21.406Z,16.30
2017-05-12T05:18:49.258Z,16.30
2017-05-12T05:21:17.411Z,16.40
2017-05-12T05:23:44.805Z,16.50
2017-05-12T05:26:12.982Z,16.20
2017-05-12T05:28:41.313Z,16.30
2017-05-12T05:31:08.729Z,16.30
2017-05-12T05:33:36.386Z,16.30
2017-05-12T05:36:03.814Z,16.60
2017-05-12T05:38:31.307Z,16.70
2017-05-12T05:40:58.699Z,16.90
2017-05-12T05:43:26.839Z,16.90
2017-05-12T05:45:54.261Z,17.00
2017-05-12T05:48:22.404Z,17.00
2017-05-12T05:50:49.789Z,17.20
2017-05-12T05:53:17.917Z,17.30
2017-05-12T05:55:45.493Z,17.30
2017-05-12T05:58:12.855Z,17.60
2017-05-12T06:00:40.796Z,17.80
2017-05-12T06:03:08.207Z,17.80
2017-05-12T06:05:36.203Z,17.80
2017-05-12T06:08:03.707Z,17.80
2017-05-12T06:10:31.262Z,17.90
2017-05-12T06:12:58.971Z,18.00
2017-05-12T06:15:26.371Z,18.00
2017-05-12T06:17:53.719Z,18.00
2017-05-12T06:20:22.866Z,18.20
2017-05-12T06:22:51.080Z,18.30
2017-05-12T06:25:18.464Z,18.60
2017-05-12T06:27:45.992Z,18.50
2017-05-12T06:30:13.649Z,18.50
2017-05-12T06:32:41.840Z,18.60
2017-05-12T06:35:09.295Z,18.70
2017-05-12T06:37:36.674Z,18.80
2017-05-12T06:40:05.113Z,19.00
2017-05-12T06:42:32.590Z,19.20
2017-05-12T06:44:59.975Z,19.40
2017-05-12T06:47:28.273Z,19.50
2017-05-12T06:49:55.628Z,19.60
2017-05-12T06:52:24.550Z,19.50
2017-05-12T06:54:52.667Z,19.30
2017-05-12T06:57:20.970Z,18.90
2017-05-12T06:59:48.430Z,19.30
2017-05-12T07:02:15.792Z,19.40
2017-05-12T07:04:43.179Z,19.10
2017-05-12T07:07:12.168Z,19.10
2017-05-12T07:09:40.445Z,19.40
2017-05-12T07:12:08.611Z,19.80
2017-05-12T07:14:35.979Z,20.00
2017-05-12T07:17:03.573Z,20.50
2017-05-12T07:19:31.977Z,20.80
2017-05-12T07:21:59.351Z,21.00
2017-05-12T07:24:26.742Z,20.70
2017-05-12T07:26:54.081Z,21.00
2017-05-12T07:29:21.764Z,21.20
2017-05-12T07:31:50.310Z,21.10
2017-05-12T07:34:18.428Z,21.10
2017-05-12T07:36:46.570Z,21.10
2017-05-12T07:39:13.906Z,21.00
2017-05-12T07:41:41.282Z,20.60
2017-05-12T07:44:09.424Z,20.70
2017-05-12T07:46:37.603Z,20.50
2017-05-12T07:49:05.067Z,20.60
2017-05-12T07:51:32.598Z,20.70
2017-05-12T07:53:59.987Z,20.80
2017-05-12T07:56:28.638Z,20.90
2017-05-12T07:58:55.986Z,20.90
2017-05-12T08:01:23.386Z,21.20
2017-05-12T08:03:50.820Z,21.30
2017-05-12T08:06:19.487Z,21.00
2017-05-12T08:08:47.419Z,20.50
2017-05-12T08:11:16.595Z,20.50
2017-05-12T08:13:44.565Z,20.70
2017-05-12T08:16:14.370Z,21.30
2017-05-12T08:18:41.854Z,21.70
2017-05-12T08:21:09.993Z,22.00
2017-05-12T08:23:37.408Z,22.00
2017-05-12T08:26:05.009Z,22.10
2017-05-12T08:28:32.571Z,22.00
2017-05-12T08:30:59.963Z,22.00
2017-05-12T08:33:28.135Z,22.00
2017-05-12T08:35:55.550Z,22.30
2017-05-12T08:38:22.883Z,22.10
2017-05-12T08:40:50.267Z,22.10
2017-05-12T08:43:17.656Z,22.20
2017-05-12T08:45:46.595Z,23.00
2017-05-12T08:48:13.975Z,23.90
2017-05-12T08:50:41.319Z,24.50
2017-05-12T08:53:09.553Z,24.90
2017-05-12T08:55:36.946Z,25.00
2017-05-12T08:58:04.371Z,25.10
2017-05-12T09:00:32.920Z,25.90
2017-05-12T09:03:01.085Z,30.30
2017-05-12T09:05:29.196Z,35.00
2017-05-12T09:07:56.573Z,32.60
2017-05-12T09:10:25.585Z,30.80
2017-05-12T09:12:53.064Z,32.20
2017-05-12T09:15:20.861Z,32.20
2017-05-12T09:17:48.268Z,35.80
2017-05-12T09:20:16.556Z,34.10
2017-05-12T09:22:43.955Z,34.70
2017-05-12T09:25:14.298Z,36.00
2017-05-12T09:27:41.676Z,37.50
2017-05-12T09:30:09.042Z,37.40
2017-05-12T09:32:37.181Z,37.50
2017-05-12T09:35:04.567Z,40.80
2017-05-12T09:37:32.854Z,43.60
2017-05-12T09:40:02.002Z,43.40
2017-05-12T09:42:29.694Z,43.90
2017-05-12T09:44:58.497Z,38.50
2017-05-12T09:47:25.915Z,37.10
2017-05-12T09:49:53.391Z,36.60
2017-05-12T09:52:21.078Z,34.80
2017-05-12T09:54:49.634Z,31.20
2017-05-12T09:57:18.069Z,27.90
2017-05-12T09:59:46.385Z,26.40
2017-05-12T10:02:13.741Z,25.90
2017-05-12T10:04:41.337Z,25.50
2017-05-12T10:07:10.919Z,25.20
2017-05-12T10:09:38.398Z,25.50
2017-05-12T10:12:06.529Z,26.00
2017-05-12T10:14:33.886Z,25.50
2017-05-12T10:17:01.281Z,25.10
2017-05-12T10:19:28.823Z,25.60
2017-05-12T10:21:56.211Z,25.70
2017-05-12T10:24:23.612Z,26.10
2017-05-12T10:26:51.028Z,26.20
2017-05-12T10:29:18.538Z,26.00
2017-05-12T10:31:45.950Z,25.20
2017-05-12T10:34:14.387Z,25.10
2017-05-12T10:36:42.842Z,25.50
2017-05-12T10:39:10.199Z,25.70
2017-05-12T10:41:37.603Z,25.40
2017-05-12T10:44:05.216Z,26.10
2017-05-12T10:46:32.644Z,26.60
2017-05-12T10:49:00.025Z,26.20
2017-05-12T10:51:27.419Z,26.50
2017-05-12T10:53:56.026Z,26.40
2017-05-12T10:56:23.915Z,26.50
2017-05-12T10:58:51.514Z,27.40
2017-05-12T11:01:19.661Z,29.60
2017-05-12T11:03:47.545Z,31.30
2017-05-12T11:06:14.898Z,34.60
2017-05-12T11:08:43.390Z,32.80
2017-05-12T11:11:14.095Z,33.50
2017-05-12T11:13:41.461Z,38.50
2017-05-12T11:16:09.622Z,40.80
2017-05-12T11:18:36.974Z,42.50
2017-05-12T11:21:04.668Z,41.40
2017-05-12T11:23:34.030Z,38.90
2017-05-12T11:26:01.595Z,43.00
2017-05-12T11:28:29.278Z,38.70
2017-05-12T11:30:57.538Z,39.10
2017-05-12T11:33:25.286Z,42.10
2017-05-12T11:35:53.601Z,39.70
2017-05-12T11:38:20.936Z,39.10
2017-05-12T11:40:48.279Z,36.70
2017-05-12T11:43:15.633Z,33.80
2017-05-12T11:45:42.981Z,32.80
2017-05-12T11:48:10.736Z,32.90
2017-05-12T11:50:38.079Z,32.70
2017-05-12T11:53:05.523Z,33.20
2017-05-12T11:55:32.878Z,31.90
2017-05-12T11:58:00.269Z,30.80
2017-05-12T12:00:27.625Z,31.00
2017-05-12T12:02:54.979Z,31.60
2017-05-12T12:05:22.421Z,32.10
2017-05-12T12:07:49.817Z,30.30
2017-05-12T12:10:17.153Z,29.70
2017-05-12T12:12:45.014Z,29.60
2017-05-12T12:15:14.099Z,30.10
2017-05-12T12:17:41.510Z,29.60
2017-05-12T12:20:09.718Z,28.30
2017-05-12T12:22:37.255Z,27.80
2017-05-12T12:25:04.945Z,27.40
2017-05-12T12:27:32.299Z,26.50
2017-05-12T12:30:05.311Z,26.80
2017-05-12T12:32:32.662Z,26.30
2017-05-12T12:35:00.002Z,26.00
2017-05-12T12:37:27.474Z,26.00
2017-05-12T12:39:54.978Z,26.10
2017-05-12T12:42:22.412Z,26.30
2017-05-12T12:44:51.507Z,26.50
2017-05-12T12:47:19.659Z,26.30
2017-05-12T12:49:47.158Z,28.30
2017-05-12T12:52:15.324Z,34.50
2017-05-12T12:54:44.973Z,36.00
2017-05-12T12:57:12.341Z,33.30
2017-05-12T12:59:40.921Z,32.00
2017-05-12T13:02:08.304Z,30.60
2017-05-12T13:04:37.274Z,29.40
2017-05-12T13:07:04.676Z,28.80
2017-05-12T13:09:32.789Z,28.70
2017-05-12T13:12:00.149Z,27.60
2017-05-12T13:14:28.303Z,27.90
2017-05-12T13:16:55.769Z,28.30
2017-05-12T13:19:23.129Z,28.30
2017-05-12T13:21:50.533Z,27.90
2017-05-12T13:24:18.856Z,27.50
2017-05-12T13:26:46.206Z,27.30
2017-05-12T13:29:13.569Z,27.00
2017-05-12T13:31:40.891Z,26.70
2017-05-12T13:34:08.518Z,26.50
2017-05-12T13:36:36.668Z,26.70
2017-05-12T13:39:05.105Z,26.60
2017-05-12T13:41:32.688Z,26.70
2017-05-12T13:44:00.177Z,26.50
2017-05-12T13:46:27.745Z,26.20
2017-05-12T13:48:55.845Z,26.10
2017-05-12T13:51:23.978Z,26.00
2017-05-12T13:53:52.151Z,26.10
2017-05-12T13:56:19.566Z,26.20
2017-05-12T13:58:47.138Z,26.10
2017-05-12T14:01:14.513Z,25.80
2017-05-12T14:03:41.952Z,26.00
2017-05-12T14:06:09.274Z,26.20
2017-05-12T14:08:36.832Z,26.30
2017-05-12T14:11:04.235Z,26.30
2017-05-12T14:13:31.709Z,26.40
2017-05-12T14:16:00.854Z,26.10
2017-05-12T14:18:28.356Z,26.50
2017-05-12T14:20:56.374Z,26.90
2017-05-12T14:23:23.754Z,27.20
2017-05-12T14:25:52.040Z,26.90
2017-05-12T14:28:19.537Z,26.30
2017-05-12T14:30:47.416Z,25.80
2017-05-12T14:33:15.104Z,25.80
2017-05-12T14:35:42.561Z,25.50
2017-05-12T14:38:09.904Z,25.40
2017-05-12T14:40:37.354Z,25.40
2017-05-12T14:43:04.801Z,25.50
2017-05-12T14:45:33.007Z,25.70
2017-05-12T14:48:00.352Z,25.70
2017-05-12T14:50:27.786Z,25.50
2017-05-12T14:52:55.170Z,25.30
2017-05-12T14:55:22.520Z,24.80
2017-05-12T14:57:49.914Z,24.50
2017-05-12T15:00:17.513Z,24.50
2017-05-12T15:02:45.031Z,24.50
2017-05-12T15:05:15.334Z,24.60
2017-05-12T15:07:42.959Z,25.10
2017-05-12T15:10:10.378Z,25.10
2017-05-12T15:12:37.752Z,25.50
2017-05-12T15:15:05.917Z,25.50
2017-05-12T15:17:33.301Z,25.20
2017-05-12T15:20:00.694Z,25.10
2017-05-12T15:22:28.176Z,24.90
2017-05-12T15:24:56.354Z,25.10
2017-05-12T15:27:23.971Z,25.10
2017-05-12T15:29:51.958Z,25.00
2017-05-12T15:32:19.565Z,25.00
2017-05-12T15:34:46.965Z,24.50
2017-05-12T15:37:14.444Z,24.00
2017-05-12T15:39:43.570Z,24.10
2017-05-12T15:42:11.103Z,23.80
2017-05-12T15:44:38.525Z,23.80
2017-05-12T15:47:05.838Z,24.10
2017-05-12T15:49:33.239Z,24.40
2017-05-12T15:52:00.655Z,24.30
2017-05-12T15:54:30.188Z,24.20
2017-05-12T15:56:57.586Z,24.10
2017-05-12T15:59:25.224Z,24.00
2017-05-12T16:01:54.151Z,23.70
2017-05-12T16:04:21.578Z,23.80
2017-05-12T16:06:49.011Z,23.70
2017-05-12T16:09:16.442Z,23.50
2017-05-12T16:11:43.815Z,23.50
2017-05-12T16:14:11.187Z,23.20
2017-05-12T16:16:38.571Z,23.20
2017-05-12T16:19:06.035Z,23.10
2017-05-12T16:21:33.430Z,23.00
2017-05-12T16:24:01.034Z,23.00
2017-05-12T16:26:28.401Z,22.90
2017-05-12T16:28:56.882Z,22.80
2017-05-12T16:31:25.232Z,22.70
2017-05-12T16:33:52.683Z,22.70
2017-05-12T16:36:20.123Z,22.60
2017-05-12T16:38:47.473Z,22.70
2017-05-12T16:41:14.834Z,22.50
2017-05-12T16:43:42.228Z,22.40
2017-05-12T16:46:10.362Z,22.70
2017-05-12T16:48:37.806Z,22.60
2017-05-12T16:51:05.180Z,22.40
2017-05-12T16:53:32.711Z,22.40
2017-05-12T16:56:00.188Z,22.20
2017-05-12T16:58:27.643Z,22.00
2017-05-12T17:00:55.817Z,22.00
2017-05-12T17:03:24.091Z,22.10
2017-05-12T17:05:51.623Z,22.30
2017-05-12T17:08:18.968Z,22.30
2017-05-12T17:10:47.540Z,22.20
2017-05-12T17:13:15.750Z,22.00
2017-05-12T17:15:43.178Z,22.00
2017-05-12T17:18:11.169Z,22.00
2017-05-12T17:20:38.743Z,22.00
2017-05-12T17:23:06.901Z,21.90
2017-05-12T17:25:34.254Z,21.80
2017-05-12T17:28:01.657Z,21.70
2017-05-12T17:30:29.019Z,21.80
2017-05-12T17:32:57.115Z,21.80
2017-05-12T17:35:25.444Z,21.80
2017-05-12T17:37:58.410Z,21.90
2017-05-12T17:40:25.821Z,21.80
2017-05-12T17:42:53.916Z,21.70
2017-05-12T17:45:22.361Z,21.60
2017-05-12T17:47:49.850Z,21.50
2017-05-12T17:50:17.200Z,21.50
2017-05-12T17:52:45.269Z,21.40
2017-05-12T17:55:14.107Z,21.20
2017-05-12T17:57:41.618Z,21.20
2017-05-12T18:00:09.041Z,21.20
2017-05-12T18:02:36.413Z,21.10
2017-05-12T18:05:04.564Z,21.10
2017-05-12T18:07:32.698Z,21.00
2017-05-12T18:10:00.108Z,21.00
2017-05-12T18:12:27.836Z,21.00
2017-05-12T18:14:55.185Z,20.90
2017-05-12T18:17:22.841Z,20.90
2017-05-12T18:19:51.125Z,20.90
2017-05-12T18:22:18.595Z,20.90
2017-05-12T18:24:46.026Z,20.90
2017-05-12T18:27:13.649Z,20.80
2017-05-12T18:29:41.972Z,20.90
2017-05-12T18:32:09.712Z,20.80
2017-05-12T18:34:37.119Z,20.80
2017-05-12T18:37:04.551Z,20.80
2017-05-12T18:39:32.136Z,20.80
2017-05-12T18:41:59.521Z,20.80
2017-05-12T18:44:26.947Z,20.80
2017-05-12T18:46:54.301Z,20.70
2017-05-12T18:49:21.699Z,20.60
2017-05-12T18:51:49.061Z,20.60
2017-05-12T18:54:16.463Z,20.60
2017-05-12T18:56:44.237Z,20.50
2017-05-12T18:59:12.873Z,20.50
2017-05-12T19:01:40.403Z,20.50
2017-05-12T19:04:07.758Z,20.40
2017-05-12T19:06:35.894Z,20.40
2017-05-12T19:09:03.416Z,20.30
2017-05-12T19:11:31.092Z,20.30
2017-05-12T19:13:58.659Z,20.30
2017-05-12T19:16:26.012Z,20.30
2017-05-12T19:18:53.535Z,20.00
2017-05-12T19:21:21.100Z,20.00
2017-05-12T19:23:48.509Z,20.00
2017-05-12T19:26:16.034Z,20.00
2017-05-12T19:28:43.443Z,20.00
2017-05-12T19:31:10.802Z,20.10
2017-05-12T19:33:38.174Z,20.10
2017-05-12T19:36:05.650Z,20.00
2017-05-12T19:38:33.229Z,19.90
2017-05-12T19:41:00.627Z,19.80
2017-05-12T19:43:28.165Z,19.90
2017-05-12T19:45:56.803Z,19.70
2017-05-12T19:48:24.470Z,19.60
2017-05-12T19:50:52.182Z,19.50
2017-05-12T19:53:19.557Z,19.30
2017-05-12T19:55:47.231Z,19.30
2017-05-12T19:58:16.143Z,19.20
2017-05-12T20:00:43.946Z,19.10
2017-05-12T20:03:11.434Z,19.10
2017-05-12T20:05:38.827Z,19.00
2017-05-12T20:08:06.238Z,19.10
2017-05-12T20:10:33.637Z,19.30
2017-05-12T20:13:01.125Z,19.20
2017-05-12T20:15:29.052Z,19.20
2017-05-12T20:18:01.862Z,19.10
2017-05-12T20:20:30.109Z,19.10
2017-05-12T20:22:57.511Z,19.10
2017-05-12T20:25:25.218Z,19.10
2017-05-12T20:27:52.587Z,19.10
2017-05-12T20:30:20.004Z,19.30
2017-05-12T20:32:48.657Z,19.20
2017-05-12T20:35:16.924Z,19.10
2017-05-12T20:37:45.298Z,19.10
2017-05-12T20:40:13.426Z,19.00
2017-05-12T20:42:40.808Z,18.90
2017-05-12T20:45:08.319Z,18.90
2017-05-12T20:47:35.748Z,18.90
2017-05-12T20:50:03.980Z,19.00
2017-05-12T20:52:31.666Z,18.90
2017-05-12T20:54:59.038Z,18.90
2017-05-12T20:57:26.555Z,18.80
2017-05-12T20:59:54.227Z,18.50
2017-05-12T21:02:21.582Z,18.30
2017-05-12T21:04:54.474Z,18.10
2017-05-12T21:07:21.902Z,18.00
2017-05-12T21:09:49.621Z,18.10
2017-05-12T21:12:17.146Z,18.20
2017-05-12T21:14:44.631Z,18.20
2017-05-12T21:17:12.127Z,18.30
2017-05-12T21:19:39.522Z,18.20
2017-05-12T21:22:07.539Z,18.10
2017-05-12T21:24:35.801Z,18.10
2017-05-12T21:27:03.218Z,18.20
2017-05-12T21:29:30.903Z,18.00
2017-05-12T21:31:58.243Z,18.00
2017-05-12T21:34:25.908Z,18.00
2017-05-12T21:36:53.316Z,18.00
2017-05-12T21:39:20.955Z,18.00
2017-05-12T21:41:48.484Z,17.90
2017-05-12T21:44:15.852Z,17.90
2017-05-12T21:46:43.290Z,17.90
2017-05-12T21:49:10.739Z,18.00
2017-05-12T21:51:38.119Z,17.60
2017-05-12T21:54:06.259Z,17.50
2017-05-12T21:56:33.620Z,17.50
2017-05-12T21:59:01.790Z,17.30
2017-05-12T22:01:29.187Z,17.10
2017-05-12T22:03:56.601Z,17.00
2017-05-12T22:06:23.981Z,17.10
2017-05-12T22:08:51.400Z,17.00
2017-05-12T22:11:18.722Z,16.80
2017-05-12T22:13:47.157Z,16.90
2017-05-12T22:16:15.420Z,16.90
2017-05-12T22:18:43.814Z,17.00
2017-05-12T22:21:11.928Z,17.10
2017-05-12T22:23:39.270Z,17.00
2017-05-12T22:26:07.375Z,17.00
2017-05-12T22:28:34.703Z,17.00
2017-05-12T22:31:02.087Z,16.90
2017-05-12T22:33:29.504Z,16.80
2017-05-12T22:35:57.589Z,16.70
2017-05-12T22:38:25.180Z,16.70
2017-05-12T22:40:52.581Z,16.60
2017-05-12T22:43:20.709Z,16.60
2017-05-12T22:45:48.094Z,16.70
2017-05-12T22:48:15.492Z,16.60
2017-05-12T22:50:42.887Z,16.60
2017-05-12T22:53:10.249Z,16.40
2017-05-12T22:55:37.611Z,16.30
2017-05-12T22:58:05.069Z,16.30
2017-05-12T23:00:32.393Z,16.30
2017-05-12T23:02:59.758Z,16.20
2017-05-12T23:05:27.137Z,16.20
2017-05-12T23:07:54.490Z,16.20
2017-05-12T23:10:21.859Z,16.20
2017-05-12T23:12:49.936Z,16.00
2017-05-12T23:15:17.301Z,16.10
2017-05-12T23:17:44.799Z,16.00
2017-05-12T23:20:12.262Z,16.00
2017-05-12T23:22:39.756Z,16.00
2017-05-12T23:25:07.180Z,15.90
2017-05-12T23:27:34.555Z,15.90
2017-05-12T23:30:01.879Z,15.90
2017-05-12T23:32:29.234Z,15.90
2017-05-12T23:34:56.919Z,15.90
2017-05-12T23:37:24.333Z,15.90
2017-05-12T23:39:51.704Z,15.80
2017-05-12T23:42:19.056Z,15.70
2017-05-12T23:44:46.417Z,15.80
2017-05-12T23:47:13.755Z,15.90
2017-05-12T23:49:42.422Z,15.80
2017-05-12T23:52:10.010Z,15.80
2017-05-12T23:54:45.350Z,15.80
2017-05-12T23:57:12.705Z,15.80
2017-05-12T23:59:40.813Z,15.80
